• Join FlightAware (Why Join?)
  • Login
  • US Flag 
11:00AM EST


 

Airport Tracker/Info


-or-


 

Live Flight TrackerFlight Track Log ✈ UPS1337 ✈ 12-Apr-2014 ✈ KRDU - KSDF

Flight Track Log - Related Links

Times and Time Zones

All times are in EDT time to prevent confusion due to time zone crossing. See the UPS1337 flight status page for this flight to view local times or setup timezone preferences in your user account.

Time Position Orientation Groundspeed Altitude Reporting Facility
EDT Latitude Longitude Course Direction KTS MPH feet Rate Location/Type
12:06AM 35.8686 -78.8089 263° West 154 177 1,800  Level Washington Center
12:10AM 35.8333 -79.1414 284° West 280 322 12,300 2,700 Climbing Atlanta Center
12:11AM 35.8528 -79.2658 281° West 325 374 15,600 2,940 Climbing Atlanta Center
12:12AM 35.8867 -79.3894 289° West 371 427 18,200 2,700 Climbing Atlanta Center
12:13AM 35.9231 -79.5258 288° West 376 433 21,000 2,460 Climbing Atlanta Center
12:14AM 35.9544 -79.6444 288° West 396 456 23,200 2,040 Climbing Atlanta Center
12:15AM 35.9817 -79.7418 284° West  Level FlightAware Approximate
12:15AM 35.9908 -79.7839 288° West 409 471 25,100  Level Atlanta Center
12:16AM 36.0289 -79.9256 288° West 421 484 26,800 1,920 Climbing Atlanta Center
12:17AM 36.0672 -80.0700 288° West 432 497 29,000 2,340 Climbing Atlanta Center
12:18AM 36.1053 -80.2222 287° West 432 497 31,500 1,500 Climbing Atlanta Center
12:19AM 36.1408 -80.3619 288° West 432 497 32,000 240 Climbing Atlanta Center
12:20AM 36.1764 -80.5019 288° West 432 497 32,000  Level Atlanta Center
12:21AM 36.2111 -80.6239 289° West 432 497 32,000  Level Atlanta Center
12:22AM 36.2461 -80.7642 287° West 432 497 32,000  Level Atlanta Center
12:23AM 36.2811 -80.9017 288° West 432 497 32,000  Level Atlanta Center
12:24AM 36.3303 -81.0364 294° West 432 497 32,000  Level Atlanta Center
12:25AM 36.3772 -81.1686 294° West 432 497 32,000  Level Atlanta Center
12:26AM 36.4242 -81.3064 293° West 427 491 32,000  Level Atlanta Center
12:27AM 36.4750 -81.4389 296° West 427 491 32,000  Level Atlanta Center
12:28AM 36.5217 -81.5742 293° West 434 499 32,000  Level Atlanta Center
12:29AM 36.5658 -81.7047 293° West 420 483 32,000  Level Atlanta Center
12:30AM 36.6119 -81.8378 293° West 415 478 32,000  Level Atlanta Center
12:31AM 36.6447 -81.9256 295° West 415 478 32,000  Level Indianapolis Center
12:32AM 36.6900 -82.0550 294° West 411 473 32,000  Level Indianapolis Center
12:33AM 36.7342 -82.1822 293° West 401 461 32,000  Level Indianapolis Center
12:34AM 36.7783 -82.3092 294° West 401 461 32,000  Level Indianapolis Center
12:35AM 36.8222 -82.4367 293° West 400 460 32,000  Level Indianapolis Center
12:36AM 36.8661 -82.5644 293° West 401 461 32,000  Level Indianapolis Center
12:37AM 36.9106 -82.6936 293° West 402 463 32,000  Level Indianapolis Center
12:38AM 36.9567 -82.8286 293° West 404 465 32,000  Level Indianapolis Center
12:39AM 37.0036 -82.9669 293° West 404 465 32,000  Level Indianapolis Center
12:40AM 37.0467 -83.0950 293° West 403 464 32,000  Level Indianapolis Center
12:41AM 37.0900 -83.2236 293° West 403 464 32,000  Level Indianapolis Center
12:42AM 37.1333 -83.3528 293° West 402 463 32,000  Level Indianapolis Center
12:43AM 37.1761 -83.4817 293° West 402 463 32,000  Level Indianapolis Center
12:44AM 37.2189 -83.6103 293° West 401 461 32,000  Level Indianapolis Center
12:45AM 37.2611 -83.7381 293° West 399 459 32,000 -360 Level Indianapolis Center
12:46AM 37.3036 -83.8669 293° West 399 459 31,300 -1,440 Descending Indianapolis Center
12:47AM 37.3461 -83.9969 292° West 400 460 29,100 -2,640 Descending Indianapolis Center
12:48AM 37.3886 -84.1269 292° West 401 461 26,000 -3,180 Descending Indianapolis Center
12:49AM 37.4314 -84.2578 292° West 403 464 22,800 -3,240 Descending Indianapolis Center
12:50AM 37.4731 -84.3867 292° West 396 456 19,500 -3,120 Descending Indianapolis Center
12:51AM 37.5136 -84.5119 292° West 383 441 16,600 -3,000 Descending Indianapolis Center
12:52AM 37.5536 -84.6372 292° West 377 434 13,500 -2,400 Descending Indianapolis Center
12:53AM 37.5906 -84.7528 292° West 366 421 11,800 -1,560 Descending Indianapolis Center
12:54AM 37.6289 -84.8725 292° West 356 410 10,400 -1,020 Descending Indianapolis Center
12:55AM 37.6683 -84.9731 296° West 322 371 9,800 -900 Descending Indianapolis Center
12:56AM 37.7239 -85.0486 313° West 277 319 8,700 -1,500 Descending Indianapolis Center
12:57AM 37.7733 -85.1175 312° West 275 316 6,800 -1,380 Descending Indianapolis Center
12:58AM 37.8233 -85.1872 312° West 271 312 6,000 -600 Descending Indianapolis Center
12:59AM 37.8408 -85.2789 284° West 268 308 5,600 -900 Descending Indianapolis Center
01:00AM 37.8564 -85.3756 282° West 267 307 4,200 -1,080 Descending Indianapolis Center
01:01AM 37.8711 -85.4547 283° West 267 307 3,500 -600 Descending Indianapolis Center
01:02AM 37.9036 -85.5442 295° West 225 259 3,100 -240 Descending Indianapolis Center
01:03AM 37.9372 -85.6117 302° West 228 262 3,100  Level Indianapolis Center
01:04AM 37.9647 -85.6747 299° West 216 249 3,100  Level Indianapolis Center
01:05AM 38.0164 -85.6922 345° North 203 234 3,100 -240 Level Indianapolis Center
01:06AM 38.0622 -85.7053 347° North 198 228 2,700 -420 Descending Indianapolis Center
01:09AM 38.1741 -85.7365 339° North  Level Estimated
01:16AM 38.1741 -85.7365 208° Southwest  Level Estimated